Terminal Aerodrome Forecast
Issued by NWS Quad Cities IA IL

Home | Current Version | Previous Version | Text Only | Print | Product List | Glossary On
Versions: 1 2 3 4 5 6 7 8 9 10 11 12 13 14 15 16 17 18 19 20 21 22 23 24 25 26 27 28 29
000
FTUS43 KDVN 270520
TAFDBQ
TAF
KDBQ 270520Z 2706/2806 VRB03KT P6SM SCT030 OVC070
      TEMPO 2708/2712 2SM BR BKN007
     FM271200 03006KT 4SM BR SCT010 OVC040
     FM271500 04008KT P6SM BKN050
      AMD NOT SKED=

USA.gov is the U.S. government's official web portal to all federal, state and local government web resources and services.